METAR LDZA 191300Z 36006KT 330V050 9999 -RA FEW006 BKN012 OVC023 13/11 Q1008 NOSIG =
METAR LDZA 191230Z 01010KT 330V060 3500 +RA SCT005 OVC014 13/12 Q1008 BECMG 8000 -RA SCT010 OVC020 =
METAR LDZA 191200Z 30007KT 260V340 4000 +RA BKN005 OVC014 13/12 Q1009 NOSIG =
METAR LDZA 191130Z 02009KT 350V070 6000 RA BKN006 OVC012 13/12 Q1008 NOSIG =
METAR LDZA 191100Z 04010KT 360V100 4000 RA BKN007 OVC012 13/12 Q1009 NOSIG =
METAR LDZA 191030Z 04011KT 010V080 9999 SCT007 OVC013 13/12 Q1009 BECMG 4000 RA =
METAR LDZA 191000Z 03012KT 360V070 9999 -RA SCT006 OVC013 13/12 Q1009 BECMG 4000 RA =
METAR LDZA 190930Z 04013KT 360V090 4000 -RA BR BKN008 OVC012 13/12 Q1009 NOSIG =
METAR LDZA 190900Z 04011KT 010V080 9999 -RA BKN008 OVC012 13/12 Q1010 RERA NOSIG =
METAR LDZA 190830Z 04012KT 360V070 9999 RA BKN007 OVC012 13/12 Q1010 NOSIG =
METAR LDZA 190800Z 03010KT 010V080 8000 RA BKN007 OVC012 13/12 Q1010 NOSIG =
METAR LDZA 190730Z 04007KT 360V080 6000 RA BKN007 OVC013 13/12 Q1010 NOSIG =
METAR LDZA 190700Z 04009KT 330V100 9999 RA FEW008 BKN012 13/12 Q1010 NOSIG =
METAR COR LDZA 190630Z 04010KT 350V080 9999 -RA BKN012 13/12 Q1010 NOSIG =
METAR LDZA 190600Z 05009KT 010V110 9999 -RA SCT010 13/12 Q1010 TEMPO RA BKN012 OVC020 =
METAR LDZA 190530Z 03008KT 350V070 8000 -RA SCT015 13/12 Q1011 TEMPO RA BKN012 OVC020 =
METAR LDZA 190500Z 03009KT 340V070 9999 -RA FEW015 13/12 Q1011 TEMPO RA BKN012 OVC020 =
METAR LDZA 190430Z 03005KT 360V070 9999 -RA SCT015 13/12 Q1011 BECMG RA BKN012 OVC020 =
METAR LDZA 190400Z 03004KT 350V090 9999 -RA BKN015 13/12 Q1011 NOSIG =
METAR LDZA 190330Z 01003KT 300V050 9999 -RA BKN015 13/12 Q1011 NOSIG =
METAR LDZA 190300Z 34006KT 320V020 9999 -RA BKN015 13/12 Q1011 NOSIG =
METAR LDZA 190230Z 00000KT 9999 -RA BKN020 13/12 Q1012 NOSIG =
METAR COR LDZA 190200Z 00000KT 9999 -RA BKN020 13/12 Q1012 NOSIG =
METAR LDZA 190130Z 00000KT 9999 -RA BKN020 13/12 Q1012 NOSIG =
METAR LDZA 190100Z VRB01KT 9999 -RA FEW023 13/12 Q1012 NOSIG =
METAR COR LDZA 190030Z VRB01KT 9999 -RA FEW023 13/12 Q1013 NOSIG =
METAR LDZA 190000Z 00000KT 9999 -RA FEW023 13/12 Q1013 NOSIG =
METAR LDZA 182330Z VRB01KT 9999 -RA FEW023 13/12 Q1013 NOSIG =
METAR LDZA 182300Z 29003KT 240V340 9999 FEW023 14/12 Q1014 NOSIG =
METAR LDZA 182230Z 27003KT 230V310 9999 FEW023 14/13 Q1014 NOSIG =
METAR LDZA 182200Z VRB02KT 9999 -RA SCT023 SCT045 14/13 Q1014 NOSIG =
METAR LDZA 182130Z 31004KT 9999 SCT013 BKN045 14/13 Q1015 NOSIG =
METAR LDZA 182100Z 30003KT 260V330 9999 -RA SCT045 14/13 Q1015 NOSIG =
METAR LDZA 182030Z VRB01KT 9999 -RA SCT045 15/14 Q1015 NOSIG =
METAR LDZA 182000Z VRB02KT 9999 -RA SCT045 15/14 Q1015 NOSIG =
METAR LDZA 181930Z 23003KT 200V260 9999 -RA SCT045 15/14 Q1015 NOSIG =
METAR LDZA 181900Z 31005KT 290V350 9999 -RA FEW045 15/13 Q1015 NOSIG =
METAR LDZA 181830Z 30003KT 250V330 9999 -RA FEW045 15/13 Q1015 TEMPO SHRA FEW030TCU =
METAR LDZA 181800Z 33005KT 300V360 9999 -RA FEW036 15/13 Q1015 TEMPO SHRA FEW030TCU =
METAR LDZA 181730Z VRB02KT 9999 -SHRA BKN036 16/13 Q1015 TEMPO SHRA FEW030TCU =
METAR LDZA 181700Z 02004KT 300V060 9999 -SHRA SCT045 16/13 Q1015 TEMPO SHRA FEW030TCU =
METAR LDZA 181630Z 04009KT 010V090 CAVOK 17/12 Q1014 BECMG 04005KT TEMPO SHRA FEW030TCU =
METAR LDZA 181600Z 04009KT 360V080 CAVOK 18/12 Q1014 BECMG 04005KT TEMPO SHRA FEW030TCU =
METAR LDZA 181530Z 03011KT 350V060 9999 FEW036 19/12 Q1015 BECMG 04005KT TEMPO SHRA FEW030TCU =
METAR LDZA 181500Z 02006KT 330V070 9999 FEW036 20/12 Q1015 TEMPO SHRA FEW030TCU =
METAR LDZA 181430Z 04005KT 340V090 9999 FEW036 20/10 Q1015 NOSIG =
METAR LDZA 181400Z 04004KT 340V110 9999 FEW036 21/11 Q1015 TEMPO SHRA FEW030TCU =
METAR LDZA 181330Z 15003KT 080V230 9999 FEW036 21/11 Q1015 TEMPO SHRA FEW030TCU =
METAR LDZA 181300Z VRB03KT 9999 FEW036 21/12 Q1015 TEMPO SHRA FEW030TCU =
METAR LDZA 181230Z 12004KT 060V180 9999 FEW035 21/12 Q1015 TEMPO SHRA FEW030TCU =
METAR LDZA 181200Z VRB02KT 9999 FEW035 20/12 Q1016 NOSIG =
METAR LDZA 181130Z VRB02KT 9999 FEW030 19/12 Q1016 NOSIG =
METAR LDZA 181100Z 36003KT 300V100 9999 FEW030 18/12 Q1016 NOSIG =
METAR LDZA 181030Z 04003KT 340V090 9999 FEW007 FEW030 17/12 Q1016 NOSIG =
METAR LDZA 181000Z VRB02KT 9999 SCT007 16/13 Q1017 NOSIG =
METAR LDZA 180930Z 36003KT 300V080 9999 SCT006 15/12 Q1017 NOSIG =
METAR LDZA 180900Z VRB02KT 9999 BKN005 14/12 Q1017 BECMG SCT010 =
METAR LDZA 180830Z VRB02KT 7000 OVC003 13/12 Q1017 BECMG SCT003 =
METAR LDZA 180800Z VRB02KT 5000 BR OVC003 12/12 Q1017 BECMG 9999 NSW SCT003 =
METAR LDZA 180730Z VRB02KT 3000 BR OVC002 12/11 Q1017 BECMG 9999 NSW SCT003 =
METAR LDZA 180700Z 00000KT 0800 R05/1300N R23/1100U FG VV002 12/11 Q1016 BECMG 1500 BCFG SCT003 =
METAR LDZA 180630Z 00000KT 0300 R05/1600U R23/1100U FG VV002 11/11 Q1016 BECMG 1500 BCFG SCT003 =
METAR COR LDZA 180600Z VRB01KT 0300 R05/0650N R23/0800N FG VV002 11/10 Q1016 BECMG 1500 BCFG SCT003 =
METAR LDZA 180530Z VRB01KT 1500 R23/0750D BCFG BKN002 10/10 Q1016 BECMG 6000 NSW SCT003 =
METAR LDZA 180500Z VRB02KT 1500 BCFG OVC002 10/10 Q1016 BECMG 3000 BR BKN003 =
METAR LDZA 180430Z 00000KT 0200 R05/0450N R23/0450U FG VV001 10/10 Q1016 NOSIG =
METAR LDZA 180400Z VRB01KT 0200 R05/0500U R23/0500N FG VV001 10/09 Q1015 NOSIG =
METAR LDZA 180330Z 00000KT 0300 R05/0800D R23/0300N FG BKN001 09/08 Q1015 BECMG VV001 =
METAR LDZA 180300Z 01001KT 8000 3000NE R23/1100D BCFG NSC 09/08 Q1015 BECMG 0300 FG =
METAR LDZA 180230Z 25002KT 9999 MIFG NSC 09/08 Q1015 TEMPO 3000 MIFG BR =
METAR LDZA 180200Z 25003KT CAVOK 10/09 Q1015 NOSIG =
METAR LDZA 180130Z 00000KT CAVOK 10/09 Q1015 NOSIG =